Terminal Aerodrome Forecast
Issued by NWS Duluth, MN

Home | Current Version | Previous Version | Text Only | Print | Product List | Glossary On
Versions: 1 2 3 4 5 6 7 8 9 10 11 12 13 14 15 16 17 18 19 20 21 22 23 24 25 26 27 28 29
000
FTUS43 KDLH 051133
TAFINL
TAF
KINL 051133Z 0512/0612 00000KT P6SM SCT050
      TEMPO 0512/0513 1SM BR SCT001
     FM051500 13005KT P6SM SCT050
     FM060800 15008KT P6SM VCTS SCT060CB BKN150=

USA.gov is the U.S. government's official web portal to all federal, state and local government web resources and services.